Time;durP1;ratioP1;P1;durP2;ratioP2;P2;SDS_P1;SDS_P2;PMS_P1;PMS_P2;Temp;Humidity;BMP_temperature;BMP_pressure;BME280_temperature;BME280_humidity;BME280_pressure;Samples;Min_cycle;Max_cycle;Signal;HPM_P1;HPM_P2
2022/07/13 00:00:15;;;;;;;3.80;1.27;;;;;;;18.04;43.81;95121.75;4171832;28;20151;-55
2022/07/13 00:02:17;;;;;;;3.35;1.23;;;;;;;18.02;43.85;95124.59;4169838;28;20045;-57
2022/07/13 00:04:18;;;;;;;2.20;1.20;;;;;;;18.05;44.27;95116.28;4168378;28;20209;-55
2022/07/13 00:06:20;;;;;;;3.03;1.70;;;;;;;18.10;44.12;95121.00;4177004;28;20056;-53
2022/07/13 00:08:22;;;;;;;1.80;1.00;;;;;;;18.13;44.14;95118.78;4160739;28;20053;-54
2022/07/13 00:10:24;;;;;;;1.95;1.33;;;;;;;18.16;43.91;95113.06;4163764;28;20045;-56
2022/07/13 00:12:26;;;;;;;2.90;1.02;;;;;;;18.18;43.98;95111.03;4169799;28;20179;-56
2022/07/13 00:14:28;;;;;;;4.05;1.27;;;;;;;18.14;44.13;95108.97;4169496;28;20052;-54
2022/07/13 00:16:29;;;;;;;2.13;1.23;;;;;;;18.14;44.32;95114.28;4162956;28;20072;-56
2022/07/13 00:18:31;;;;;;;2.33;1.10;;;;;;;18.14;44.40;95112.44;4172502;28;20128;-54
2022/07/13 00:20:33;;;;;;;2.60;1.20;;;;;;;18.14;44.40;95106.34;4163277;28;20082;-54
2022/07/13 00:22:35;;;;;;;3.17;1.05;;;;;;;18.14;44.47;95111.63;4176599;28;20114;-55
2022/07/13 00:24:36;;;;;;;3.30;1.17;;;;;;;18.11;44.81;95118.16;4175884;28;20049;-56
2022/07/13 00:26:38;;;;;;;3.15;1.35;;;;;;;18.08;44.83;95115.06;4165079;28;20590;-56
2022/07/13 00:28:40;;;;;;;3.03;1.20;;;;;;;18.04;44.96;95111.16;4159531;28;20045;-55
2022/07/13 00:30:42;;;;;;;2.13;1.20;;;;;;;18.01;44.78;95107.88;4173347;28;20045;-55
2022/07/13 00:32:44;;;;;;;1.90;1.30;;;;;;;18.01;44.96;95112.38;4169318;28;20782;-55
2022/07/13 00:34:45;;;;;;;2.88;1.23;;;;;;;17.99;44.83;95115.22;4159707;28;20465;-55
2022/07/13 00:36:47;;;;;;;5.50;1.23;;;;;;;17.99;45.07;95115.22;4171409;28;20144;-54
2022/07/13 00:38:49;;;;;;;2.72;1.30;;;;;;;17.97;45.42;95117.25;4170164;28;20048;-55
2022/07/13 00:40:51;;;;;;;3.30;1.25;;;;;;;17.89;45.63;95116.56;4176204;28;20056;-54
2022/07/13 00:42:52;;;;;;;4.60;1.35;;;;;;;17.83;45.87;95110.22;4171509;28;20053;-55
2022/07/13 00:44:54;;;;;;;2.00;1.30;;;;;;;17.79;46.14;95114.25;4165751;28;20101;-55
2022/07/13 00:46:56;;;;;;;2.47;1.30;;;;;;;17.80;46.41;95107.94;4165329;28;20427;-56
2022/07/13 00:49:00;;;;;;;2.30;1.35;;;;;;;17.81;46.32;95113.03;4165862;28;20053;-55
2022/07/13 00:51:02;;;;;;;3.05;1.33;;;;;;;17.80;46.57;95103.44;4171021;28;20052;-56
2022/07/13 00:53:05;;;;;;;3.15;1.50;;;;;;;17.80;46.52;95111.38;4159880;28;20046;-55
2022/07/13 00:55:08;;;;;;;4.32;1.50;;;;;;;17.66;46.68;95108.84;4162251;28;20068;-56
2022/07/13 00:57:12;;;;;;;3.85;1.70;;;;;;;17.56;47.00;95103.88;4170629;28;20421;-58
2022/07/13 00:59:13;;;;;;;1.80;1.20;;;;;;;17.45;47.05;95115.00;4159201;28;20152;-56
2022/07/13 01:01:16;;;;;;;2.92;1.35;;;;;;;17.38;47.45;95107.81;4170002;28;20056;-60
2022/07/13 01:03:17;;;;;;;2.58;1.33;;;;;;;17.39;47.64;95113.94;4173233;28;20482;-54
2022/07/13 01:05:19;;;;;;;3.20;1.23;;;;;;;17.36;48.11;95111.69;4168572;28;20053;-54
2022/07/13 01:07:21;;;;;;;2.33;1.27;;;;;;;17.33;48.21;95104.09;4176138;28;20558;-55
2022/07/13 01:09:23;;;;;;;5.43;1.85;;;;;;;17.22;48.37;95107.28;4171047;28;20052;-56
2022/07/13 01:11:24;;;;;;;6.43;1.38;;;;;;;16.99;48.66;95105.63;4174769;28;20114;-55
2022/07/13 01:13:26;;;;;;;5.15;1.70;;;;;;;16.48;49.13;95117.06;4172926;28;20102;-58
2022/07/13 01:15:28;;;;;;;4.00;1.50;;;;;;;16.17;50.09;95112.81;4164014;28;20579;-57
2022/07/13 01:17:31;;;;;;;3.63;1.35;;;;;;;16.28;49.99;95123.91;4158397;28;20080;-53
2022/07/13 01:19:34;;;;;;;3.47;1.60;;;;;;;16.43;49.87;95122.06;4156894;28;20603;-56
2022/07/13 01:21:36;;;;;;;4.22;1.48;;;;;;;16.60;49.43;95114.75;4160992;28;20053;-55
2022/07/13 01:23:39;;;;;;;4.03;1.30;;;;;;;16.74;48.66;95107.78;4173590;28;20045;-55
2022/07/13 01:25:41;;;;;;;2.10;1.45;;;;;;;16.83;48.36;95111.97;4172393;28;20111;-53
2022/07/13 01:27:43;;;;;;;1.85;1.17;;;;;;;16.93;47.88;95104.56;4161863;28;20049;-55
2022/07/13 01:29:45;;;;;;;3.85;1.40;;;;;;;17.01;47.80;95103.59;4160772;28;20506;-57
2022/07/13 01:31:47;;;;;;;2.30;1.17;;;;;;;17.01;47.67;95108.91;4159536;28;20107;-54
2022/07/13 01:33:49;;;;;;;5.93;1.40;;;;;;;17.05;47.78;95107.50;4164194;28;20041;-56
2022/07/13 01:35:50;;;;;;;3.53;1.10;;;;;;;17.03;47.66;95104.25;4161640;28;20046;-55
2022/07/13 01:37:54;;;;;;;3.13;1.13;;;;;;;17.02;47.54;95093.84;4172145;28;20626;-54
2022/07/13 01:39:55;;;;;;;2.45;1.20;;;;;;;16.92;47.72;95099.44;4161236;28;20077;-57
2022/07/13 01:41:57;;;;;;;2.42;1.20;;;;;;;16.90;47.84;95099.63;4161142;28;20057;-55
2022/07/13 01:43:59;;;;;;;3.45;1.10;;;;;;;16.86;48.00;95106.31;4162765;28;20058;-55
2022/07/13 01:46:03;;;;;;;3.40;1.13;;;;;;;16.88;48.05;95100.84;4171496;28;20049;-55
2022/07/13 01:48:05;;;;;;;3.53;1.27;;;;;;;16.89;47.99;95090.06;4172077;28;20170;-53
2022/07/13 01:50:08;;;;;;;3.63;1.25;;;;;;;16.95;48.11;95097.25;4161640;28;20071;-56
2022/07/13 01:52:09;;;;;;;1.70;1.17;;;;;;;16.94;48.46;95086.84;4164479;28;20071;-54
2022/07/13 01:54:11;;;;;;;1.80;1.20;;;;;;;16.98;48.48;95093.41;4160898;28;20474;-55
2022/07/13 01:56:13;;;;;;;2.83;1.15;;;;;;;17.00;48.36;95096.69;4170411;28;20112;-55
2022/07/13 01:58:14;;;;;;;3.05;1.30;;;;;;;17.05;48.38;95096.94;4161565;28;20123;-54
2022/07/13 02:00:18;;;;;;;3.38;1.40;;;;;;;17.03;48.80;95098.94;4168841;28;20075;-57
2022/07/13 02:02:20;;;;;;;3.35;1.60;;;;;;;17.02;49.17;95099.97;4172804;28;20053;-55
2022/07/13 02:04:21;;;;;;;4.18;1.80;;;;;;;17.01;49.39;95100.16;4177777;28;20134;-55
2022/07/13 02:06:23;;;;;;;4.07;1.75;;;;;;;16.97;49.33;95108.47;4166602;28;20045;-54
2022/07/13 02:08:25;;;;;;;4.50;1.52;;;;;;;16.88;49.51;95106.94;4177951;28;20052;-56
2022/07/13 02:10:36;;;;;;;4.45;1.70;;;;;;;16.73;49.90;95101.66;4173871;28;20064;-54
2022/07/13 02:12:39;;;;;;;5.13;1.58;;;;;;;16.71;49.88;95113.44;4160195;28;20079;-55
2022/07/13 02:14:40;;;;;;;5.97;1.48;;;;;;;16.71;49.82;95114.28;4162032;28;20126;-56
2022/07/13 02:16:42;;;;;;;2.65;1.33;;;;;;;16.75;49.80;95107.59;4161725;28;20053;-51
2022/07/13 02:18:44;;;;;;;5.00;1.40;;;;;;;16.82;49.59;95102.41;4173808;28;20057;-55
2022/07/13 02:20:46;;;;;;;5.50;1.75;;;;;;;16.86;49.39;95106.31;4162134;28;20053;-57
2022/07/13 02:22:48;;;;;;;2.03;1.45;;;;;;;16.86;49.66;95101.00;4161575;28;20045;-55
2022/07/13 02:24:49;;;;;;;4.95;1.60;;;;;;;16.83;49.71;95104.03;4172940;28;20501;-55
2022/07/13 02:26:51;;;;;;;4.72;2.13;;;;;;;16.83;49.77;95103.22;4176343;28;20060;-54
2022/07/13 02:28:52;;;;;;;5.68;1.60;;;;;;;16.70;50.44;95106.53;4178235;28;20154;-54
2022/07/13 02:30:54;;;;;;;6.82;1.90;;;;;;;16.54;50.63;95107.53;4175682;28;20477;-55
2022/07/13 02:32:56;;;;;;;3.97;1.65;;;;;;;16.48;50.71;95098.56;4168770;28;20053;-54
2022/07/13 02:34:58;;;;;;;4.93;1.67;;;;;;;16.55;50.15;95103.91;4161287;28;20049;-54
2022/07/13 02:37:00;;;;;;;3.33;1.55;;;;;;;16.62;49.74;95099.50;4161971;28;20076;-54
2022/07/13 02:39:03;;;;;;;5.97;2.00;;;;;;;16.65;49.76;95101.78;4176926;28;20544;-55
2022/07/13 02:41:04;;;;;;;3.72;1.42;;;;;;;16.67;49.62;95105.06;4173887;28;20322;-54
2022/07/13 02:43:07;;;;;;;4.25;1.45;;;;;;;16.52;50.36;95098.97;4160732;28;20042;-56
2022/07/13 02:45:09;;;;;;;1.67;1.17;;;;;;;16.45;50.24;95108.66;4161453;28;20123;-54
2022/07/13 02:47:12;;;;;;;4.60;1.40;;;;;;;16.42;50.24;95103.75;4161687;28;20045;-54
2022/07/13 02:49:13;;;;;;;2.42;1.30;;;;;;;16.47;50.14;95109.31;4161018;28;20053;-56
2022/07/13 02:51:15;;;;;;;5.00;1.40;;;;;;;16.51;50.17;95102.66;4173799;28;20049;-56
2022/07/13 02:53:17;;;;;;;3.28;1.50;;;;;;;16.54;50.22;95099.63;4168504;28;20546;-55
2022/07/13 02:55:18;;;;;;;4.22;1.60;;;;;;;16.54;50.56;95099.63;4177709;28;20041;-55
2022/07/13 02:57:20;;;;;;;3.13;1.60;;;;;;;16.58;50.34;95111.47;4178054;28;20151;-56
2022/07/13 02:59:21;;;;;;;3.05;1.38;;;;;;;16.58;50.18;95106.16;4176569;28;20481;-56
2022/07/13 03:01:24;;;;;;;3.00;1.20;;;;;;;16.57;49.82;95104.56;4161358;28;20505;-54
2022/07/13 03:03:26;;;;;;;4.97;1.50;;;;;;;16.61;49.69;95100.53;4160001;28;20131;-54
2022/07/13 03:05:28;;;;;;;5.50;1.75;;;;;;;16.63;49.54;95101.16;4169863;28;20049;-53
2022/07/13 03:07:30;;;;;;;4.28;1.55;;;;;;;16.63;49.58;95101.16;4178188;28;20049;-55
2022/07/13 03:09:31;;;;;;;6.35;1.70;;;;;;;16.63;49.41;95109.09;4167486;28;20076;-57
2022/07/13 03:11:33;;;;;;;6.68;1.38;;;;;;;16.59;49.32;95108.63;4168220;28;20461;-54
2022/07/13 03:13:35;;;;;;;2.42;1.10;;;;;;;16.57;48.93;95102.72;4160390;28;20114;-55
2022/07/13 03:15:37;;;;;;;5.07;1.42;;;;;;;16.56;48.70;95100.25;4160390;28;20069;-55
2022/07/13 03:17:40;;;;;;;2.38;1.30;;;;;;;16.55;48.83;95099.44;4160173;28;20524;-55
2022/07/13 03:19:42;;;;;;;4.07;1.30;;;;;;;16.47;48.68;95102.19;4174075;28;20063;-51
2022/07/13 03:21:44;;;;;;;2.65;1.30;;;;;;;16.38;48.56;95098.00;4163797;28;20191;-51
2022/07/13 03:23:46;;;;;;;2.60;1.20;;;;;;;16.42;48.46;95101.94;4168077;28;20060;-51
2022/07/13 03:25:47;;;;;;;2.45;1.08;;;;;;;16.42;48.31;95095.84;4169103;28;20086;-53
2022/07/13 03:27:49;;;;;;;3.97;1.40;;;;;;;16.45;48.11;95096.25;4166498;28;20123;-54
2022/07/13 03:29:51;;;;;;;4.40;1.30;;;;;;;16.46;48.29;95091.81;4160450;28;20110;-50
2022/07/13 03:31:53;;;;;;;7.53;1.40;;;;;;;16.42;48.19;95090.53;4173505;28;20060;-52
2022/07/13 03:33:55;;;;;;;5.85;1.52;;;;;;;16.47;48.24;95090.78;4165186;28;20099;-50
2022/07/13 03:35:56;;;;;;;3.85;1.05;;;;;;;16.43;48.36;95092.16;4176828;28;20045;-49
2022/07/13 03:37:58;;;;;;;4.13;1.52;;;;;;;16.35;48.75;95093.91;4166133;28;20136;-48
2022/07/13 03:40:00;;;;;;;3.15;1.27;;;;;;;16.37;48.62;95097.22;4174241;28;20049;-52
2022/07/13 03:42:01;;;;;;;4.70;1.27;;;;;;;16.38;48.74;95095.38;4172860;28;20106;-53
2022/07/13 03:44:03;;;;;;;4.30;1.13;;;;;;;16.42;48.76;95088.72;4161308;28;20498;-54
2022/07/13 03:46:05;;;;;;;7.30;1.40;;;;;;;16.50;48.45;95090.44;4163605;28;20122;-52
2022/07/13 03:48:07;;;;;;;3.75;1.30;;;;;;;16.57;48.21;95097.44;4173583;28;20049;-53
2022/07/13 03:50:09;;;;;;;3.35;1.52;;;;;;;16.64;48.03;95096.69;4159953;28;20183;-54
2022/07/13 03:52:17;;;;;;;4.10;1.23;;;;;;;16.73;47.84;95096.38;4160986;28;20069;-50
2022/07/13 03:54:19;;;;;;;3.20;1.45;;;;;;;16.81;47.93;95098.13;4160567;28;20308;-53
2022/07/13 03:56:20;;;;;;;8.18;1.50;;;;;;;16.88;47.92;95100.84;4173165;28;20075;-51
2022/07/13 03:58:22;;;;;;;4.35;1.60;;;;;;;16.90;47.91;95096.16;4161180;28;20177;-55
2022/07/13 04:00:24;;;;;;;5.13;1.50;;;;;;;17.03;47.45;95101.59;4177078;28;20048;-55
2022/07/13 04:02:25;;;;;;;3.10;1.40;;;;;;;17.08;47.25;95111.59;4173164;28;20060;-55
2022/07/13 04:04:27;;;;;;;4.38;1.40;;;;;;;17.16;47.12;95108.84;4176409;28;20088;-55
2022/07/13 04:06:29;;;;;;;4.05;1.27;;;;;;;17.23;46.87;95101.78;4163275;28;20543;-55
2022/07/13 04:08:31;;;;;;;2.38;1.33;;;;;;;17.31;46.61;95103.47;4173816;28;20110;-54
2022/07/13 04:10:32;;;;;;;4.20;1.60;;;;;;;17.40;46.57;95097.03;4165160;28;20049;-60
2022/07/13 04:12:34;;;;;;;3.15;1.30;;;;;;;17.46;46.63;95104.19;4168831;28;20053;-55
2022/07/13 04:14:36;;;;;;;4.13;1.42;;;;;;;17.50;46.49;95110.75;4160418;28;20056;-56
2022/07/13 04:16:37;;;;;;;6.95;1.73;;;;;;;17.43;46.78;95112.53;4172984;28;20111;-54
2022/07/13 04:18:39;;;;;;;6.00;1.50;;;;;;;17.47;46.88;95119.09;4172532;28;20104;-54
2022/07/13 04:20:41;;;;;;;4.10;1.70;;;;;;;17.50;47.03;95120.53;4160550;28;20115;-56
2022/07/13 04:22:43;;;;;;;4.95;1.50;;;;;;;17.24;47.70;95123.78;4159528;28;20049;-57
2022/07/13 04:24:45;;;;;;;10.38;2.08;;;;;;;17.23;48.22;95119.47;4159757;28;20065;-53
2022/07/13 04:26:47;;;;;;;7.10;2.67;;;;;;;17.36;48.58;95120.44;4172852;28;20094;-57
2022/07/13 04:28:48;;;;;;;7.97;2.60;;;;;;;17.55;49.22;95123.44;4159953;28;20061;-55
2022/07/13 04:30:50;;;;;;;9.70;2.80;;;;;;;17.63;49.61;95125.94;4168391;28;20554;-55
2022/07/13 04:32:52;;;;;;;7.03;3.05;;;;;;;17.65;49.64;95134.50;4158669;28;20141;-53
2022/07/13 04:34:54;;;;;;;8.20;3.00;;;;;;;17.66;49.50;95130.03;4159873;28;20088;-54
2022/07/13 04:36:56;;;;;;;8.23;3.10;;;;;;;17.62;49.36;95129.63;4159354;28;20053;-53
2022/07/13 04:38:58;;;;;;;10.35;3.13;;;;;;;17.45;50.19;95131.72;4173924;28;20496;-55
2022/07/13 04:40:59;;;;;;;7.88;2.80;;;;;;;17.45;50.23;95122.97;4170116;28;20049;-51
2022/07/13 04:43:01;;;;;;;6.90;3.28;;;;;;;17.55;49.85;95131.38;4158720;28;20045;-55
2022/07/13 04:45:03;;;;;;;6.30;2.67;;;;;;;17.68;49.29;95125.34;4160201;28;20500;-56
2022/07/13 04:47:05;;;;;;;4.35;2.50;;;;;;;17.86;48.14;95128.38;4171233;28;20056;-57
2022/07/13 04:49:07;;;;;;;9.25;2.85;;;;;;;17.96;47.92;95120.06;4164161;28;20053;-57
2022/07/13 04:51:09;;;;;;;6.43;2.60;;;;;;;18.08;47.57;95123.00;4159436;28;20435;-56
2022/07/13 04:53:11;;;;;;;7.07;2.92;;;;;;;18.06;48.01;95122.38;4172759;28;20150;-57
2022/07/13 04:55:12;;;;;;;8.35;2.40;;;;;;;18.04;47.46;95119.13;4159424;28;20304;-55
2022/07/13 04:57:14;;;;;;;5.80;2.90;;;;;;;17.88;47.92;95121.06;4160166;28;20509;-55
2022/07/13 04:59:16;;;;;;;8.35;2.75;;;;;;;17.88;47.58;95123.72;4158994;28;20670;-57
2022/07/13 05:01:18;;;;;;;8.43;2.67;;;;;;;17.89;47.49;95127.19;4172717;28;20104;-56
2022/07/13 05:03:27;;;;;;;5.68;2.63;;;;;;;17.97;47.78;95125.19;4158560;28;20061;-57
2022/07/13 05:05:32;;;;;;;11.77;3.17;;;;;;;18.09;47.42;95127.28;4159348;28;20052;-56
2022/07/13 05:07:33;;;;;;;6.97;2.70;;;;;;;18.26;47.00;95125.97;4159748;28;20111;-54
2022/07/13 05:09:39;;;;;;;13.02;2.85;;;;;;;18.22;47.22;95127.38;4159054;28;20053;-56
2022/07/13 05:11:41;;;;;;;6.13;2.20;;;;;;;17.97;47.76;95130.50;4171236;28;20057;-56
2022/07/13 05:13:43;;;;;;;7.70;2.50;;;;;;;18.08;47.51;95128.31;4159216;28;20119;-54
2022/07/13 05:15:45;;;;;;;5.20;2.22;;;;;;;18.07;47.14;95124.00;4160450;28;20046;-54
2022/07/13 05:17:46;;;;;;;7.40;2.53;;;;;;;18.16;47.16;95131.63;4164762;28;20353;-55
2022/07/13 05:19:48;;;;;;;4.85;2.03;;;;;;;18.25;47.21;95123.53;4166264;28;20272;-54
2022/07/13 05:21:50;;;;;;;7.80;2.60;;;;;;;18.32;47.19;95127.81;4171296;28;20122;-55
2022/07/13 05:23:52;;;;;;;6.43;2.10;;;;;;;18.30;47.07;95135.16;4160151;28;20064;-55
2022/07/13 05:25:53;;;;;;;4.65;2.20;;;;;;;18.07;47.40;95129.31;4164289;28;20037;-55
2022/07/13 05:27:55;;;;;;;7.28;2.50;;;;;;;17.85;48.51;95134.69;4167143;28;20048;-55
2022/07/13 05:30:01;;;;;;;6.22;2.42;;;;;;;17.76;48.85;95136.63;4160059;28;20518;-57
2022/07/13 05:32:04;;;;;;;6.82;2.45;;;;;;;17.83;49.03;95131.41;4173642;28;20136;-54
2022/07/13 05:34:06;;;;;;;5.43;2.37;;;;;;;17.79;49.05;95133.63;4171481;28;20095;-54
2022/07/13 05:36:08;;;;;;;4.97;1.80;;;;;;;17.44;49.26;95150.44;4173780;28;20283;-55
2022/07/13 05:38:09;;;;;;;4.47;1.77;;;;;;;17.34;49.53;95140.19;4175659;28;20476;-56
2022/07/13 05:40:12;;;;;;;4.95;1.85;;;;;;;17.12;49.79;95131.41;4171282;28;20552;-54
2022/07/13 05:42:14;;;;;;;5.82;1.83;;;;;;;17.03;50.01;95143.94;4177313;28;20045;-56
2022/07/13 05:44:16;;;;;;;6.57;1.98;;;;;;;17.12;49.81;95140.19;4179483;28;20208;-55
2022/07/13 05:46:18;;;;;;;3.83;1.55;;;;;;;17.20;49.68;95147.97;4174897;28;20045;-54
2022/07/13 05:48:19;;;;;;;10.45;1.80;;;;;;;17.29;49.77;95132.78;4176543;28;20133;-54
2022/07/13 05:50:21;;;;;;;8.32;1.67;;;;;;;17.54;49.29;95140.34;4172843;28;20068;-51
2022/07/13 05:52:24;;;;;;;3.17;1.40;;;;;;;17.87;48.62;95137.97;4172781;28;20115;-55
2022/07/13 05:54:26;;;;;;;4.57;1.50;;;;;;;17.88;48.17;95136.97;4162251;28;20103;-54
2022/07/13 05:56:45;;;;;;;4.80;1.75;;;;;;;18.06;47.42;95130.34;4162316;28;20045;-58
2022/07/13 05:58:47;;;;;;;7.53;1.90;;;;;;;18.29;47.33;95141.50;4178125;28;20509;-56
2022/07/13 06:00:48;;;;;;;8.63;1.83;;;;;;;18.29;47.52;95133.53;4165278;28;20052;-58
2022/07/13 06:02:58;;;;;;;5.55;1.58;;;;;;;18.46;46.86;95131.38;4174597;28;20056;-59
2022/07/13 06:04:59;;;;;;;3.40;1.90;;;;;;;18.66;46.94;95128.81;4162273;28;20049;-55
2022/07/13 06:07:01;;;;;;;3.88;1.60;;;;;;;18.75;45.67;95126.78;4162116;28;20429;-58
2022/07/13 06:09:03;;;;;;;4.97;1.77;;;;;;;18.93;45.26;95120.94;4162319;28;20122;-53
2022/07/13 06:11:05;;;;;;;4.57;1.70;;;;;;;19.03;45.08;95129.34;4162238;28;20123;-59
2022/07/13 06:13:07;;;;;;;2.97;1.52;;;;;;;19.03;44.03;95129.34;4162414;28;20115;-57
2022/07/13 06:15:09;;;;;;;4.65;1.88;;;;;;;19.05;43.79;95127.31;4175166;28;20049;-56
2022/07/13 06:17:11;;;;;;;6.78;1.80;;;;;;;18.72;43.96;95133.31;4168078;28;20461;-59
2022/07/13 06:19:12;;;;;;;4.20;1.30;;;;;;;18.84;43.43;95125.63;4177696;28;20114;-58
2022/07/13 06:21:14;;;;;;;7.20;2.40;;;;;;;18.92;43.30;95125.44;4178085;28;20114;-58
2022/07/13 06:23:16;;;;;;;3.35;1.75;;;;;;;19.12;42.79;95122.84;4178528;28;20349;-59
2022/07/13 06:25:18;;;;;;;3.20;1.55;;;;;;;19.31;42.56;95125.72;4162529;28;20528;-57
2022/07/13 06:27:20;;;;;;;3.75;1.50;;;;;;;19.18;42.25;95131.81;4161075;28;20255;-61
2022/07/13 06:29:21;;;;;;;3.55;2.20;;;;;;;19.27;42.32;95125.28;4170588;28;20519;-57
2022/07/13 06:31:23;;;;;;;5.25;1.60;;;;;;;19.32;41.96;95116.75;4166425;28;20056;-57
2022/07/13 06:33:25;;;;;;;3.90;1.65;;;;;;;19.38;41.77;95132.69;4160520;28;20459;-57
2022/07/13 06:35:28;;;;;;;6.95;1.58;;;;;;;19.50;41.73;95127.56;4160678;28;20106;-58
2022/07/13 06:37:30;;;;;;;3.20;1.20;;;;;;;19.33;41.75;95124.50;4162117;28;20065;-56
2022/07/13 06:39:48;;;;;;;3.20;1.30;;;;;;;19.46;41.91;95122.88;4161474;28;20057;-58
2022/07/13 06:41:49;;;;;;;2.15;1.10;;;;;;;19.52;41.33;95114.91;4163639;28;20049;-59
2022/07/13 06:43:51;;;;;;;4.55;1.30;;;;;;;19.61;41.48;95121.63;4173946;28;20131;-55
2022/07/13 06:45:53;;;;;;;8.35;1.27;;;;;;;19.80;41.57;95113.91;4161592;28;20065;-57
2022/07/13 06:47:55;;;;;;;2.72;1.10;;;;;;;19.89;41.21;95112.66;4165157;28;20494;-58
2022/07/13 06:49:56;;;;;;;6.85;1.75;;;;;;;19.88;41.28;95112.88;4178759;28;20107;-57
2022/07/13 06:51:58;;;;;;;3.10;1.42;;;;;;;19.90;40.75;95108.97;4166392;28;20064;-55
2022/07/13 06:54:00;;;;;;;7.30;1.60;;;;;;;19.78;40.62;95106.13;4175916;28;20159;-55
2022/07/13 06:56:01;;;;;;;2.05;1.27;;;;;;;19.86;40.59;95105.09;4164357;28;20049;-55
2022/07/13 06:58:03;;;;;;;3.33;1.73;;;;;;;19.96;40.68;95102.84;4177998;28;20061;-56
2022/07/13 07:00:06;;;;;;;4.28;1.45;;;;;;;19.90;40.26;95111.66;4169659;28;20053;-55
2022/07/13 07:02:08;;;;;;;8.55;1.67;;;;;;;19.98;40.69;95099.97;4161448;28;20057;-54
2022/07/13 07:04:10;;;;;;;3.55;1.13;;;;;;;20.12;40.63;95098.91;4159817;28;20059;-55
2022/07/13 07:06:11;;;;;;;3.80;1.30;;;;;;;19.88;40.43;95121.66;4160321;28;20056;-55
2022/07/13 07:08:13;;;;;;;5.43;2.28;;;;;;;19.74;40.99;95104.09;4162007;28;20115;-53
2022/07/13 07:10:15;;;;;;;6.35;1.50;;;;;;;19.97;41.19;95101.81;4169342;28;20052;-53
2022/07/13 07:12:17;;;;;;;5.75;1.80;;;;;;;20.14;39.63;95107.50;4178046;28;20053;-57
2022/07/13 07:14:18;;;;;;;2.97;1.73;;;;;;;20.32;39.76;95101.50;4177293;28;20054;-56
2022/07/13 07:16:20;;;;;;;6.93;1.88;;;;;;;20.41;39.07;95107.41;4174860;28;20721;-56
2022/07/13 07:18:22;;;;;;;3.50;1.67;;;;;;;20.51;38.93;95104.31;4164194;28;20049;-54
2022/07/13 07:20:24;;;;;;;10.43;1.40;;;;;;;20.59;38.84;95106.78;4177237;28;20076;-52
2022/07/13 07:22:26;;;;;;;4.70;1.73;;;;;;;20.70;39.18;95102.63;4166973;28;20045;-52
2022/07/13 07:24:28;;;;;;;7.30;3.05;;;;;;;20.48;39.23;95110.88;4173369;28;20061;-52
2022/07/13 07:26:30;;;;;;;5.57;3.47;;;;;;;20.15;40.49;95116.28;4174896;28;20095;-53
2022/07/13 07:28:32;;;;;;;5.95;2.90;;;;;;;19.71;41.54;95123.13;4164330;28;20071;-55
2022/07/13 07:30:34;;;;;;;7.00;2.05;;;;;;;19.63;41.54;95118.78;4172252;28;20130;-54
2022/07/13 07:32:38;;;;;;;17.88;6.38;;;;;;;19.77;40.96;95123.09;4169532;28;20048;-53
2022/07/13 07:34:39;;;;;;;3.92;1.67;;;;;;;20.08;40.44;95110.19;4176802;28;20126;-50
2022/07/13 07:36:41;;;;;;;6.28;2.55;;;;;;;20.18;39.65;95121.22;4176284;28;20126;-53
2022/07/13 07:38:43;;;;;;;7.22;3.78;;;;;;;20.30;39.17;95124.84;4177583;28;20469;-50
2022/07/13 07:40:45;;;;;;;6.13;2.80;;;;;;;20.43;38.74;95116.00;4173846;28;20045;-52
2022/07/13 07:42:47;;;;;;;8.38;3.70;;;;;;;20.34;39.16;95126.06;4175792;28;20089;-51
2022/07/13 07:44:49;;;;;;;6.07;1.30;;;;;;;20.60;38.57;95117.19;4177491;28;20106;-54
2022/07/13 07:46:50;;;;;;;6.97;1.40;;;;;;;20.81;38.53;95110.75;4166591;28;20464;-51
2022/07/13 07:48:52;;;;;;;4.40;1.30;;;;;;;20.95;36.64;95113.34;4159567;28;20496;-52
2022/07/13 07:50:54;;;;;;;3.13;1.58;;;;;;;20.85;37.50;95111.97;4160062;28;20064;-52
2022/07/13 07:52:56;;;;;;;3.40;1.23;;;;;;;20.30;38.04;95106.22;4161482;28;20053;-54
2022/07/13 07:54:57;;;;;;;6.50;1.98;;;;;;;20.50;38.78;95103.50;4168181;28;20053;-52
2022/07/13 07:57:02;;;;;;;2.70;1.48;;;;;;;20.83;38.21;95102.56;4165680;28;20042;-53
2022/07/13 07:59:04;;;;;;;3.63;1.50;;;;;;;20.91;37.98;95112.13;4158974;28;20351;-55
2022/07/13 08:01:06;;;;;;;9.43;1.88;;;;;;;21.04;36.92;95112.91;4162405;28;20096;-55
2022/07/13 08:03:08;;;;;;;4.10;1.85;;;;;;;20.82;37.27;95112.41;4174886;28;20049;-54
2022/07/13 08:05:10;;;;;;;8.15;1.25;;;;;;;20.88;37.55;95104.59;4176804;28;20049;-51
2022/07/13 08:07:11;;;;;;;3.55;1.00;;;;;;;21.08;37.30;95110.63;4176109;28;20045;-54
2022/07/13 08:09:13;;;;;;;9.77;1.15;;;;;;;21.23;37.43;95099.66;4176926;28;20091;-55
2022/07/13 08:11:17;;;;;;;3.55;1.10;;;;;;;21.38;37.06;95113.50;4161823;28;20057;-56
2022/07/13 08:13:19;;;;;;;3.25;1.80;;;;;;;21.43;36.92;95102.22;4175861;28;20048;-56
2022/07/13 08:15:21;;;;;;;4.35;1.85;;;;;;;21.55;37.04;95108.47;4177057;28;20378;-57
2022/07/13 08:17:22;;;;;;;7.38;1.33;;;;;;;21.46;36.68;95109.78;4164912;28;20115;-55
2022/07/13 08:19:24;;;;;;;5.97;1.13;;;;;;;21.45;37.09;95105.50;4159889;28;20504;-54
2022/07/13 08:21:42;;;;;;;3.47;1.30;;;;;;;21.48;36.62;95110.38;4159606;28;20159;-55
2022/07/13 08:23:56;;;;;;;5.85;1.20;;;;;;;21.65;36.50;95113.31;4166723;28;20115;-55
2022/07/13 08:25:58;;;;;;;3.15;1.05;;;;;;;21.56;36.61;95123.44;4176703;28;20102;-56
2022/07/13 08:28:00;;;;;;;4.70;1.23;;;;;;;21.25;37.31;95108.25;4161271;28;20520;-55
2022/07/13 08:30:02;;;;;;;3.50;1.45;;;;;;;21.25;37.30;95098.41;4162032;28;20053;-56
2022/07/13 08:32:04;;;;;;;5.88;1.90;;;;;;;21.45;37.21;95105.50;4165129;28;20098;-55
2022/07/13 08:38:46;;;;;;;6.20;2.78;;;;;;;21.84;36.32;95103.53;4164427;28;20441;-55
2022/07/13 08:40:48;;;;;;;5.47;2.15;;;;;;;21.68;36.77;95105.72;4175703;28;20064;-57
2022/07/13 08:42:49;;;;;;;4.15;1.55;;;;;;;21.56;36.53;95106.63;4174336;28;20562;-55
2022/07/13 08:44:51;;;;;;;2.58;1.05;;;;;;;21.45;36.63;95105.50;4173893;28;20067;-56
2022/07/13 08:46:53;;;;;;;1.17;0.88;;;;;;;21.76;36.31;95117.94;4173529;28;20053;-52
2022/07/13 08:48:56;;;;;;;3.88;1.50;;;;;;;21.81;36.28;95115.44;4169097;28;20136;-53
2022/07/13 08:50:58;;;;;;;3.92;1.40;;;;;;;21.89;36.19;95103.66;4162262;28;20820;-55
2022/07/13 08:53:01;;;;;;;2.35;1.02;;;;;;;21.84;36.54;95123.00;4174962;28;20055;-51
2022/07/13 08:55:05;;;;;;;1.98;1.10;;;;;;;21.83;35.48;95115.22;4173581;28;20515;-53
2022/07/13 08:57:06;;;;;;;3.78;1.25;;;;;;;21.93;34.78;95102.19;4160201;28;20041;-52
2022/07/13 08:59:08;;;;;;;4.07;1.08;;;;;;;21.82;35.31;95102.91;4158108;28;20053;-51
2022/07/13 09:01:11;;;;;;;3.58;0.93;;;;;;;21.96;35.86;95107.09;4172386;28;20063;-52
2022/07/13 09:03:13;;;;;;;7.47;1.25;;;;;;;22.24;34.98;95097.78;4163714;28;20067;-50
2022/07/13 09:05:18;;;;;;;3.08;1.13;;;;;;;22.51;35.01;95094.84;4175825;28;20049;-52
2022/07/13 09:07:20;;;;;;;3.83;1.02;;;;;;;22.73;34.56;95090.66;4175859;28;20514;-52
2022/07/13 09:09:38;;;;;;;5.63;1.10;;;;;;;22.73;34.39;95098.66;4162060;28;20057;-52
2022/07/13 09:12:20;;;;;;;4.57;1.30;;;;;;;22.52;33.86;95099.13;4166966;28;20076;-51
2022/07/13 09:14:25;;;;;;;2.42;1.00;;;;;;;22.37;34.17;95096.84;4175931;28;20057;-55
2022/07/13 09:16:28;;;;;;;4.43;1.00;;;;;;;22.24;34.09;95106.66;4157763;28;20069;-51
2022/07/13 09:18:35;;;;;;;3.70;1.02;;;;;;;22.27;34.19;95098.19;4158193;28;20052;-52
2022/07/13 09:20:37;;;;;;;5.55;0.90;;;;;;;22.28;34.01;95107.00;4158684;28;20454;-53
2022/07/13 09:22:56;;;;;;;1.83;0.68;;;;;;;22.49;34.04;95089.72;4171454;28;20099;-54
2022/07/13 09:25:00;;;;;;;2.60;1.02;;;;;;;22.52;34.46;95093.78;4171966;28;20068;-52
2022/07/13 09:27:02;;;;;;;4.28;1.02;;;;;;;22.68;34.37;95088.66;4159524;28;20404;-51
2022/07/13 09:29:05;;;;;;;5.55;0.80;;;;;;;23.08;33.61;95080.16;4158263;28;20049;-52
2022/07/13 09:31:07;;;;;;;3.00;1.05;;;;;;;23.39;33.25;95072.09;4168843;28;20144;-54
2022/07/13 09:33:09;;;;;;;8.57;2.00;;;;;;;23.50;33.34;95077.44;4171676;28;20110;-53
2022/07/13 09:35:11;;;;;;;3.60;1.00;;;;;;;23.20;33.48;95085.50;4175509;28;20381;-54
2022/07/13 09:37:18;;;;;;;5.10;0.95;;;;;;;23.56;33.41;95078.38;4169632;28;20111;-51
2022/07/13 09:39:19;;;;;;;3.10;1.13;;;;;;;23.68;33.12;95089.91;4159033;28;20068;-53
2022/07/13 09:41:23;;;;;;;7.15;1.30;;;;;;;23.56;33.03;95088.28;4167712;28;20045;-53